Time;durP1;ratioP1;P1;durP2;ratioP2;P2;SDS_P1;SDS_P2;PMS_P1;PMS_P2;Temp;Humidity;BMP_temperature;BMP_pressure;BME280_temperature;BME280_humidity;BME280_pressure;Samples;Min_cycle;Max_cycle;Signal;HPM_P1;HPM_P2
2022/07/13 00:00:00;;;;;;;4.72;3.58;;;;;;;18.65;96.90;101448.47;687898;28;1083;-43
2022/07/13 00:00:21;;;;;;;5.10;3.57;;;;;;;18.63;97.39;101441.47;687161;28;1229;-44
2022/07/13 00:00:41;;;;;;;4.90;3.72;;;;;;;18.61;97.42;101452.09;687322;28;1102;-43
2022/07/13 00:01:01;;;;;;;5.60;4.00;;;;;;;18.61;97.26;101443.25;687341;28;4409;-44
2022/07/13 00:01:22;;;;;;;6.17;4.00;;;;;;;18.61;97.28;101440.63;687285;28;1115;-43
2022/07/13 00:01:42;;;;;;;4.95;3.58;;;;;;;18.59;97.11;101443.31;684826;28;1417;-45
2022/07/13 00:02:03;;;;;;;5.17;3.73;;;;;;;18.60;96.87;101442.41;683019;28;1242;-43
2022/07/13 00:02:23;;;;;;;4.75;3.83;;;;;;;18.60;97.06;101438.91;685018;28;1969;-43
2022/07/13 00:02:43;;;;;;;4.90;3.50;;;;;;;18.60;96.97;101441.56;684604;28;1199;-43
2022/07/13 00:03:04;;;;;;;5.20;3.63;;;;;;;18.58;96.96;101440.69;684114;28;1175;-44
2022/07/13 00:03:24;;;;;;;4.57;3.70;;;;;;;18.57;97.12;101431.91;684914;28;986;-43
2022/07/13 00:03:45;;;;;;;4.90;3.73;;;;;;;18.56;97.13;101435.44;687235;28;1655;-43
2022/07/13 00:04:05;;;;;;;4.88;3.72;;;;;;;18.58;96.71;101435.41;686557;28;4387;-46
2022/07/13 00:04:25;;;;;;;5.30;3.67;;;;;;;18.60;96.76;101434.47;687366;28;1029;-43
2022/07/13 00:04:46;;;;;;;5.40;3.47;;;;;;;18.62;96.89;101432.66;684350;28;1183;-43
2022/07/13 00:05:07;;;;;;;4.30;3.53;;;;;;;18.61;98.27;101433.56;684588;28;1038;-44
2022/07/13 00:05:27;;;;;;;5.55;3.72;;;;;;;18.58;97.64;101430.13;684644;28;1187;-43
2022/07/13 00:05:48;;;;;;;5.65;3.70;;;;;;;18.58;96.73;101435.41;682124;28;1106;-43
2022/07/13 00:06:08;;;;;;;6.10;4.03;;;;;;;18.55;96.51;101429.28;681497;28;1203;-43
2022/07/13 00:06:29;;;;;;;6.60;4.70;;;;;;;18.55;96.95;101431.06;682105;28;1698;-43
2022/07/13 00:06:49;;;;;;;5.22;3.78;;;;;;;18.53;97.18;101435.53;686439;28;1104;-44
2022/07/13 00:07:09;;;;;;;5.10;3.70;;;;;;;18.52;97.21;101433.78;684602;28;4335;-44
2022/07/13 00:07:30;;;;;;;4.85;3.60;;;;;;;18.51;97.61;101432.94;684922;28;1285;-43
2022/07/13 00:07:50;;;;;;;5.40;3.80;;;;;;;18.48;97.66;101421.53;684739;28;1212;-44
2022/07/13 00:08:10;;;;;;;5.32;3.85;;;;;;;18.45;97.88;101424.28;682846;28;1394;-44
2022/07/13 00:08:31;;;;;;;5.07;3.70;;;;;;;18.44;97.80;101425.16;684573;28;1342;-43
2022/07/13 00:08:51;;;;;;;5.45;3.70;;;;;;;18.43;97.77;101426.06;682887;28;1700;-43
2022/07/13 00:09:12;;;;;;;5.03;3.50;;;;;;;18.46;97.16;101420.72;683118;28;1009;-44
2022/07/13 00:09:32;;;;;;;4.80;3.47;;;;;;;18.46;97.41;101421.59;682294;28;1135;-43
2022/07/13 00:09:53;;;;;;;4.67;3.50;;;;;;;18.43;97.26;101426.97;683961;28;4443;-43
2022/07/13 00:10:13;;;;;;;7.03;3.63;;;;;;;18.40;97.39;101416.47;683498;28;1258;-43
2022/07/13 00:10:33;;;;;;;6.25;3.90;;;;;;;18.38;97.38;101427.06;685368;28;1305;-43
2022/07/13 00:10:54;;;;;;;4.80;3.70;;;;;;;18.38;97.51;101428.84;685221;28;1084;-44
2022/07/13 00:11:14;;;;;;;5.25;3.72;;;;;;;18.35;97.45;101419.19;685180;28;980;-44
2022/07/13 00:11:35;;;;;;;4.90;3.60;;;;;;;18.36;97.61;101420.09;683335;28;1030;-43
2022/07/13 00:11:55;;;;;;;4.60;3.67;;;;;;;18.36;97.36;101420.94;685748;28;1095;-43
2022/07/13 00:12:15;;;;;;;5.60;3.80;;;;;;;18.38;96.49;101424.41;684313;28;1114;-43
2022/07/13 00:12:36;;;;;;;5.63;3.93;;;;;;;18.40;96.94;101420.88;685189;28;2136;-43
2022/07/13 00:12:56;;;;;;;5.60;3.95;;;;;;;18.38;97.27;101419.13;685850;28;4386;-43
2022/07/13 00:13:17;;;;;;;5.10;3.83;;;;;;;18.38;97.26;101418.25;687625;28;1256;-43
2022/07/13 00:13:37;;;;;;;5.70;3.90;;;;;;;18.38;97.40;101418.25;685282;28;1120;-43
2022/07/13 00:13:57;;;;;;;6.60;3.70;;;;;;;18.38;97.23;101421.75;685215;28;1071;-43
2022/07/13 00:14:18;;;;;;;4.87;3.60;;;;;;;18.37;97.49;101420.06;684301;28;1337;-44
2022/07/13 00:14:38;;;;;;;5.35;3.70;;;;;;;18.34;97.68;101417.47;686217;28;1233;-43
2022/07/13 00:14:59;;;;;;;5.50;3.60;;;;;;;18.33;97.62;101415.75;682933;28;1269;-43
2022/07/13 00:15:19;;;;;;;5.20;3.80;;;;;;;18.36;97.68;101417.44;682340;28;1088;-43
2022/07/13 00:15:39;;;;;;;5.23;3.93;;;;;;;18.35;97.44;101413.91;684564;28;961;-44
2022/07/13 00:16:00;;;;;;;5.30;3.80;;;;;;;18.40;97.73;101407.63;683858;28;4651;-44
2022/07/13 00:16:21;;;;;;;6.60;3.77;;;;;;;18.42;98.38;101413.78;681809;28;1626;-42
2022/07/13 00:16:41;;;;;;;6.13;3.60;;;;;;;18.42;98.40;101406.69;682024;28;1175;-44
2022/07/13 00:17:02;;;;;;;5.10;3.80;;;;;;;18.41;98.14;101404.94;685154;28;1242;-43
2022/07/13 00:17:22;;;;;;;5.05;3.97;;;;;;;18.42;97.83;101408.47;686468;28;1379;-43
2022/07/13 00:17:42;;;;;;;5.47;3.80;;;;;;;18.41;97.62;101406.72;685676;28;964;-43
2022/07/13 00:18:03;;;;;;;6.00;3.70;;;;;;;18.38;97.84;101408.53;684979;28;1132;-43
2022/07/13 00:18:23;;;;;;;5.90;3.67;;;;;;;18.40;97.46;101403.22;687708;28;1287;-44
2022/07/13 00:18:44;;;;;;;5.75;3.88;;;;;;;18.40;98.07;101412.91;686765;28;1131;-44
2022/07/13 00:19:04;;;;;;;4.93;3.70;;;;;;;18.42;98.02;101403.19;685627;28;4406;-43
2022/07/13 00:19:25;;;;;;;5.63;3.45;;;;;;;18.42;97.89;101403.19;686787;28;3800;-43
2022/07/13 00:19:45;;;;;;;5.90;3.80;;;;;;;18.41;97.91;101399.66;685457;28;1161;-46
2022/07/13 00:20:06;;;;;;;6.55;3.63;;;;;;;18.41;97.86;101407.59;684570;28;1838;-43
2022/07/13 00:20:27;;;;;;;5.07;3.80;;;;;;;18.44;98.29;101404.00;686056;28;958;-44
2022/07/13 00:20:48;;;;;;;4.88;3.80;;;;;;;18.45;98.16;101405.75;687944;28;1178;-43
2022/07/13 00:21:08;;;;;;;4.80;3.80;;;;;;;18.42;98.56;101401.38;687703;28;1401;-44
2022/07/13 00:21:29;;;;;;;4.50;3.67;;;;;;;18.43;98.11;101404.91;687248;28;1168;-43
2022/07/13 00:21:49;;;;;;;4.50;3.50;;;;;;;18.42;97.64;101405.84;687989;28;1059;-43
2022/07/13 00:22:10;;;;;;;4.22;3.40;;;;;;;18.43;97.49;101404.91;687748;28;4345;-43
2022/07/13 00:22:31;;;;;;;4.47;3.50;;;;;;;18.40;97.42;101407.63;687772;28;1910;-43
2022/07/13 00:22:51;;;;;;;5.40;3.60;;;;;;;18.40;97.28;101407.63;684226;28;2128;-44
2022/07/13 00:23:11;;;;;;;4.60;3.40;;;;;;;18.42;96.69;101403.19;684599;28;1214;-44
2022/07/13 00:23:32;;;;;;;4.77;3.50;;;;;;;18.42;96.93;101403.19;685485;28;1146;-44
2022/07/13 00:23:52;;;;;;;5.68;3.67;;;;;;;18.40;96.81;101397.94;684691;28;1126;-43
2022/07/13 00:24:14;;;;;;;5.40;3.60;;;;;;;18.43;97.04;101403.13;682613;28;889;-43
2022/07/13 00:24:34;;;;;;;4.90;3.70;;;;;;;18.45;96.49;101397.81;683616;28;1004;-44
2022/07/13 00:24:54;;;;;;;4.63;3.72;;;;;;;18.43;96.52;101405.78;684487;28;4312;-44
2022/07/13 00:25:15;;;;;;;6.77;4.07;;;;;;;18.43;96.21;101396.94;684623;28;1115;-44
2022/07/13 00:25:35;;;;;;;6.57;4.13;;;;;;;18.45;97.30;101397.81;685773;28;1136;-44
2022/07/13 00:25:55;;;;;;;6.00;3.93;;;;;;;18.43;97.17;101400.50;685152;28;975;-43
2022/07/13 00:26:16;;;;;;;6.00;3.70;;;;;;;18.43;96.74;101402.25;688098;28;1131;-44
2022/07/13 00:26:36;;;;;;;4.68;3.50;;;;;;;18.43;96.30;101399.59;685763;28;1073;-43
2022/07/13 00:26:56;;;;;;;5.17;3.50;;;;;;;18.43;95.82;101402.25;682712;28;1188;-44
2022/07/13 00:27:17;;;;;;;5.47;3.80;;;;;;;18.43;96.51;101397.84;681901;28;1676;-44
2022/07/13 00:27:37;;;;;;;6.25;4.20;;;;;;;18.46;96.53;101399.53;686871;28;1141;-43
2022/07/13 00:27:57;;;;;;;6.03;4.10;;;;;;;18.45;97.00;101396.00;682328;28;4325;-43
2022/07/13 00:28:18;;;;;;;4.55;3.42;;;;;;;18.45;96.17;101396.00;681771;28;1416;-43
2022/07/13 00:28:38;;;;;;;4.53;3.40;;;;;;;18.44;95.91;101391.66;680540;28;1106;-43
2022/07/13 00:28:59;;;;;;;5.20;3.50;;;;;;;18.44;95.82;101398.69;682355;28;1068;-44
2022/07/13 00:29:19;;;;;;;5.50;3.67;;;;;;;18.42;95.94;101396.09;677903;29;1521;-45
2022/07/13 00:29:39;;;;;;;5.67;3.60;;;;;;;18.42;95.78;101392.59;677220;28;1119;-44
2022/07/13 00:30:00;;;;;;;5.68;3.60;;;;;;;18.43;95.43;101399.59;681069;28;1734;-43
2022/07/13 00:30:20;;;;;;;5.07;3.70;;;;;;;18.45;95.73;101392.50;685340;28;882;-43
2022/07/13 00:30:41;;;;;;;4.80;3.60;;;;;;;18.45;96.05;101392.50;686084;28;1477;-43
2022/07/13 00:31:01;;;;;;;5.17;3.70;;;;;;;18.44;95.94;101396.94;686538;28;4315;-44
2022/07/13 00:31:21;;;;;;;4.67;3.77;;;;;;;18.45;96.08;101396.00;687302;28;1273;-43
2022/07/13 00:31:42;;;;;;;4.70;3.60;;;;;;;18.47;97.28;101388.03;685248;28;694;-42
2022/07/13 00:32:03;;;;;;;5.40;3.47;;;;;;;18.47;96.36;101388.03;684986;28;1008;-43
2022/07/13 00:32:23;;;;;;;5.28;3.60;;;;;;;18.47;95.68;101396.84;684327;28;1291;-42
2022/07/13 00:32:43;;;;;;;4.68;3.60;;;;;;;18.46;95.59;101387.16;687812;28;1722;-43
2022/07/13 00:33:05;;;;;;;5.00;3.40;;;;;;;18.48;95.36;101389.78;687566;28;916;-42
2022/07/13 00:33:25;;;;;;;4.90;3.53;;;;;;;18.50;96.65;101390.63;688567;28;848;-44
2022/07/13 00:33:46;;;;;;;4.63;3.50;;;;;;;18.48;96.34;101379.19;687720;28;884;-42
2022/07/13 00:34:06;;;;;;;5.23;3.50;;;;;;;18.47;96.54;101386.25;686518;28;4372;-42
2022/07/13 00:34:27;;;;;;;4.80;3.28;;;;;;;18.46;95.98;101388.97;685270;28;1290;-46
2022/07/13 00:34:47;;;;;;;5.38;3.42;;;;;;;18.46;95.85;101387.16;682420;28;1369;-43
2022/07/13 00:35:08;;;;;;;4.97;3.57;;;;;;;18.45;95.49;101390.72;681843;28;1108;-42
2022/07/13 00:35:28;;;;;;;5.63;3.60;;;;;;;18.46;95.42;101388.97;677148;29;1304;-45
2022/07/13 00:35:49;;;;;;;5.33;3.53;;;;;;;18.45;95.45;101387.22;679106;29;1171;-43
2022/07/13 00:36:09;;;;;;;5.10;3.50;;;;;;;18.46;94.68;101384.53;676922;29;887;-43
2022/07/13 00:36:30;;;;;;;4.70;3.40;;;;;;;18.49;95.19;101384.44;676305;29;1427;-43
2022/07/13 00:36:50;;;;;;;5.22;3.40;;;;;;;18.49;96.08;101384.44;678949;28;4552;-42
2022/07/13 00:37:11;;;;;;;5.20;3.60;;;;;;;18.47;95.39;101390.66;682082;28;1025;-43
2022/07/13 00:37:31;;;;;;;4.47;3.60;;;;;;;18.47;95.17;101382.72;682473;28;1646;-44
2022/07/13 00:37:52;;;;;;;5.10;3.60;;;;;;;18.47;94.88;101377.44;681747;28;1129;-42
2022/07/13 00:38:12;;;;;;;4.57;3.60;;;;;;;18.46;94.99;101379.22;683066;28;1119;-42
2022/07/13 00:38:34;;;;;;;5.63;3.70;;;;;;;18.49;94.18;101383.56;687847;28;832;-43
2022/07/13 00:38:55;;;;;;;5.97;3.53;;;;;;;18.49;95.08;101383.56;683442;28;951;-44
2022/07/13 00:39:15;;;;;;;5.10;3.67;;;;;;;18.49;94.92;101384.44;684296;28;1429;-44
2022/07/13 00:39:36;;;;;;;4.67;3.40;;;;;;;18.49;94.99;101375.63;682147;28;851;-42
2022/07/13 00:39:56;;;;;;;4.80;3.38;;;;;;;18.49;94.82;101378.28;681423;28;4306;-42
2022/07/13 00:40:16;;;;;;;5.00;3.50;;;;;;;18.50;94.85;101380.03;678879;28;1149;-42
2022/07/13 00:40:37;;;;;;;4.70;3.40;;;;;;;18.49;94.62;101380.94;678185;29;934;-42
2022/07/13 00:40:57;;;;;;;6.27;3.47;;;;;;;18.48;94.45;101382.69;679723;28;1269;-43
2022/07/13 00:41:17;;;;;;;5.37;3.60;;;;;;;18.49;94.14;101380.94;681576;28;1342;-43
2022/07/13 00:41:48;;;;;;;4.60;3.10;;;;;;;18.49;94.25;101384.44;678228;29;1195;-43
2022/07/13 00:42:08;;;;;;;5.30;3.58;;;;;;;18.51;94.63;101382.63;679400;28;1395;-43
2022/07/13 00:42:29;;;;;;;4.45;3.53;;;;;;;18.53;94.89;101378.16;680819;28;1911;-43
2022/07/13 00:42:49;;;;;;;5.00;3.77;;;;;;;18.54;94.15;101379.03;681046;28;1675;-44
2022/07/13 00:43:10;;;;;;;5.63;3.47;;;;;;;18.55;94.11;101384.28;680050;28;4516;-44
2022/07/13 00:43:31;;;;;;;5.28;3.40;;;;;;;18.56;94.07;101379.84;685131;28;1139;-43
2022/07/13 00:43:52;;;;;;;4.30;3.30;;;;;;;18.59;94.79;101379.75;682554;28;1142;-43
2022/07/13 00:44:14;;;;;;;4.65;3.30;;;;;;;18.58;94.24;101382.44;681846;28;1070;-43
2022/07/13 00:44:34;;;;;;;5.20;3.45;;;;;;;18.58;93.74;101385.09;682237;28;1179;-44
2022/07/13 00:44:55;;;;;;;4.60;3.70;;;;;;;18.57;93.92;101373.66;682331;28;1451;-43
2022/07/13 00:45:15;;;;;;;5.20;3.53;;;;;;;18.58;93.52;101382.44;680657;28;1375;-46
2022/07/13 00:45:35;;;;;;;5.22;3.50;;;;;;;18.60;93.73;101376.22;680285;28;1862;-43
2022/07/13 00:45:56;;;;;;;4.57;3.57;;;;;;;18.61;94.30;101379.72;681250;28;4304;-43
2022/07/13 00:46:16;;;;;;;5.22;3.60;;;;;;;18.62;94.71;101379.69;679326;28;1216;-42
2022/07/13 00:46:37;;;;;;;5.03;3.80;;;;;;;18.63;94.98;101375.25;680581;28;1424;-43
2022/07/13 00:46:57;;;;;;;5.20;3.70;;;;;;;18.64;94.73;101377.88;679642;28;1211;-44
2022/07/13 00:47:18;;;;;;;5.50;3.40;;;;;;;18.66;94.67;101380.47;681082;28;929;-43
2022/07/13 00:47:38;;;;;;;6.10;3.30;;;;;;;18.67;94.53;101377.78;680831;28;916;-43
2022/07/13 00:47:59;;;;;;;5.82;3.60;;;;;;;18.70;94.44;101377.69;679626;28;1749;-44
2022/07/13 00:48:19;;;;;;;4.80;3.85;;;;;;;18.71;94.34;101382.06;681038;28;1289;-43
2022/07/13 00:48:41;;;;;;;5.77;3.97;;;;;;;18.72;94.25;101378.53;681617;28;775;-43
2022/07/13 00:49:02;;;;;;;5.13;3.60;;;;;;;18.71;94.13;101378.56;681932;28;4311;-43
2022/07/13 00:49:24;;;;;;;4.35;3.25;;;;;;;18.71;93.48;101374.13;680439;28;1324;-45
2022/07/13 00:49:44;;;;;;;4.53;3.35;;;;;;;18.72;93.25;101370.59;678701;28;1014;-43
2022/07/13 00:50:07;;;;;;;5.00;3.57;;;;;;;18.72;93.46;101380.31;681760;28;1129;-43
2022/07/13 00:50:27;;;;;;;4.90;3.50;;;;;;;18.71;93.46;101371.47;683717;28;1499;-44
2022/07/13 00:50:49;;;;;;;4.80;3.50;;;;;;;18.72;93.57;101370.59;684549;28;1756;-45
2022/07/13 00:51:09;;;;;;;4.55;3.35;;;;;;;18.74;92.98;101378.47;681231;28;1408;-43
2022/07/13 00:51:30;;;;;;;4.90;3.50;;;;;;;18.76;93.28;101373.13;681477;28;1639;-44
2022/07/13 00:51:51;;;;;;;4.43;3.40;;;;;;;18.76;93.29;101373.13;681359;28;4460;-43
2022/07/13 00:52:12;;;;;;;4.97;3.45;;;;;;;18.75;93.89;101368.75;681730;28;1263;-45
2022/07/13 00:52:35;;;;;;;4.60;3.60;;;;;;;18.75;93.57;101376.69;679264;28;1688;-43
2022/07/13 00:52:55;;;;;;;5.93;3.72;;;;;;;18.77;93.10;101377.53;677207;28;1396;-45
2022/07/13 00:53:18;;;;;;;4.95;3.42;;;;;;;18.76;93.75;101373.13;679430;28;1047;-44
2022/07/13 00:53:39;;;;;;;5.93;3.60;;;;;;;18.75;93.57;101374.03;674948;29;2068;-45
2022/07/13 00:53:59;;;;;;;5.97;3.45;;;;;;;18.75;93.47;101371.41;676976;29;1129;-42
2022/07/13 00:54:28;;;;;;;5.07;3.50;;;;;;;18.75;93.52;101371.41;678092;28;1348;-43
2022/07/13 00:54:48;;;;;;;4.72;3.50;;;;;;;18.74;93.36;101374.97;677399;29;1282;-43
2022/07/13 00:55:09;;;;;;;4.45;3.50;;;;;;;18.75;92.89;101374.94;676025;29;4533;-42
2022/07/13 00:55:31;;;;;;;5.22;3.90;;;;;;;18.76;93.37;101371.38;680415;28;1746;-44
2022/07/13 00:55:52;;;;;;;5.20;3.40;;;;;;;18.76;93.45;101370.50;684302;28;1536;-43
2022/07/13 00:56:12;;;;;;;5.87;3.53;;;;;;;18.77;94.43;101370.44;679793;28;1091;-43
2022/07/13 00:56:33;;;;;;;5.05;3.63;;;;;;;18.77;93.96;101369.59;681422;28;1209;-44
2022/07/13 00:56:56;;;;;;;4.88;3.55;;;;;;;18.77;93.51;101373.09;682788;28;1142;-43
2022/07/13 00:57:17;;;;;;;4.03;3.17;;;;;;;18.78;93.22;101366.03;683026;28;1006;-43
2022/07/13 00:57:38;;;;;;;4.63;3.53;;;;;;;18.79;93.24;101370.41;679300;28;2171;-44
2022/07/13 00:57:59;;;;;;;4.93;3.50;;;;;;;18.79;92.98;101370.41;677414;29;5277;-43
2022/07/13 00:58:20;;;;;;;4.53;3.33;;;;;;;18.78;92.94;101369.53;679475;28;1311;-43
2022/07/13 00:58:41;;;;;;;4.25;3.30;;;;;;;18.78;93.23;101371.34;680356;28;1344;-43
2022/07/13 00:59:04;;;;;;;4.37;3.40;;;;;;;18.79;93.28;101365.09;682600;28;1356;-43
2022/07/13 00:59:25;;;;;;;4.72;3.63;;;;;;;18.77;93.10;101372.22;677832;28;1162;-43
2022/07/13 00:59:46;;;;;;;4.65;3.40;;;;;;;18.78;93.04;101368.69;675159;29;1117;-43
2022/07/13 01:00:10;;;;;;;4.80;3.50;;;;;;;18.77;93.11;101362.50;677351;29;1137;-44
2022/07/13 01:00:30;;;;;;;4.97;3.45;;;;;;;18.77;93.28;101369.59;676518;29;1845;-44
2022/07/13 01:00:50;;;;;;;5.10;3.60;;;;;;;18.76;93.32;101365.19;678657;28;4364;-43
2022/07/13 01:01:11;;;;;;;5.60;3.60;;;;;;;18.77;92.89;101367.78;680437;28;1179;-43
2022/07/13 01:01:31;;;;;;;6.47;3.70;;;;;;;18.76;94.48;101365.19;677451;29;1289;-43
2022/07/13 01:01:55;;;;;;;6.03;3.80;;;;;;;18.77;94.28;101367.78;679974;28;1562;-43
2022/07/13 01:02:15;;;;;;;6.55;3.88;;;;;;;18.78;93.50;101371.34;678421;28;1783;-43
2022/07/13 01:02:37;;;;;;;5.20;3.60;;;;;;;18.78;94.03;101364.25;680088;28;1973;-43
2022/07/13 01:02:57;;;;;;;4.93;3.78;;;;;;;18.77;94.28;101362.50;679319;28;1563;-45
2022/07/13 01:03:18;;;;;;;5.50;3.92;;;;;;;18.78;94.42;101366.88;680947;28;1612;-44
2022/07/13 01:03:39;;;;;;;5.97;3.80;;;;;;;18.77;94.04;101366.94;682111;28;1313;-44
2022/07/13 01:03:59;;;;;;;6.28;3.50;;;;;;;18.78;94.03;101360.75;682352;28;4561;-43
2022/07/13 01:04:21;;;;;;;6.50;3.57;;;;;;;18.77;94.23;101365.16;681993;28;1263;-44
2022/07/13 01:04:42;;;;;;;6.70;3.60;;;;;;;18.78;93.92;101368.69;681818;28;1586;-45
2022/07/13 01:05:03;;;;;;;7.47;3.90;;;;;;;18.79;94.68;101362.44;681038;28;1129;-44
2022/07/13 01:05:23;;;;;;;5.40;3.72;;;;;;;18.77;94.55;101367.78;680130;28;1187;-44
2022/07/13 01:05:43;;;;;;;5.40;3.70;;;;;;;18.75;94.13;101358.16;684561;28;1396;-44
2022/07/13 01:06:06;;;;;;;4.93;3.70;;;;;;;18.75;94.14;101359.03;685413;28;1148;-43
2022/07/13 01:06:26;;;;;;;5.05;3.47;;;;;;;18.75;94.20;101366.09;683826;28;1200;-43
2022/07/13 01:06:47;;;;;;;5.40;3.60;;;;;;;18.76;93.60;101357.25;680058;28;1277;-43
2022/07/13 01:07:07;;;;;;;6.22;3.80;;;;;;;18.76;94.34;101355.50;679179;28;4679;-43
2022/07/13 01:07:32;;;;;;;6.15;3.60;;;;;;;18.76;95.79;101357.25;680046;28;1060;-43
2022/07/13 01:07:53;;;;;;;5.78;3.60;;;;;;;18.76;95.14;101357.25;674189;29;2073;-45
2022/07/13 01:08:13;;;;;;;6.68;3.50;;;;;;;18.75;95.22;101359.03;675218;29;1011;-46
2022/07/13 01:08:35;;;;;;;4.95;3.47;;;;;;;18.76;95.13;101362.53;675446;29;1161;-43
2022/07/13 01:08:55;;;;;;;5.47;3.58;;;;;;;18.73;94.60;101355.53;678636;28;1074;-43
2022/07/13 01:09:15;;;;;;;4.30;3.00;;;;;;;18.74;94.42;101356.44;680291;28;1260;-43
2022/07/13 01:09:36;;;;;;;5.17;3.37;;;;;;;18.72;94.57;101360.00;677410;28;1217;-42
2022/07/13 01:09:57;;;;;;;5.38;3.50;;;;;;;18.71;93.94;101358.25;681853;28;4350;-43
2022/07/13 01:10:17;;;;;;;5.40;3.40;;;;;;;18.71;94.27;101354.75;682716;28;1547;-44
2022/07/13 01:10:38;;;;;;;5.13;3.47;;;;;;;18.71;94.28;101358.25;680030;28;1072;-43
2022/07/13 01:10:59;;;;;;;5.05;3.40;;;;;;;18.71;93.91;101352.94;680155;28;1422;-43
2022/07/13 01:11:19;;;;;;;4.50;3.50;;;;;;;18.71;94.36;101352.09;679949;28;1330;-43
2022/07/13 01:11:40;;;;;;;4.70;3.58;;;;;;;18.70;94.83;101355.63;682494;28;1290;-43
2022/07/13 01:12:03;;;;;;;4.78;3.70;;;;;;;18.71;95.16;101355.59;679986;28;1292;-43
2022/07/13 01:12:24;;;;;;;4.70;3.38;;;;;;;18.71;96.47;101357.38;681680;28;1199;-44
2022/07/13 01:12:44;;;;;;;5.10;3.80;;;;;;;18.70;96.15;101351.19;678735;28;1252;-44
2022/07/13 01:13:08;;;;;;;4.65;3.60;;;;;;;18.70;95.68;101353.84;675786;29;4618;-42
2022/07/13 01:13:28;;;;;;;4.50;3.53;;;;;;;18.70;96.46;101358.28;675796;29;1380;-43
2022/07/13 01:13:49;;;;;;;5.17;3.67;;;;;;;18.69;96.10;101351.25;677767;29;826;-43
2022/07/13 01:14:09;;;;;;;5.43;3.65;;;;;;;18.69;95.28;101357.44;679596;29;925;-43
2022/07/13 01:14:30;;;;;;;5.03;3.50;;;;;;;18.72;95.48;101354.69;677135;29;1133;-45
2022/07/13 01:14:51;;;;;;;4.43;3.38;;;;;;;18.75;95.10;101358.16;680330;28;1107;-43
2022/07/13 01:15:11;;;;;;;5.40;3.50;;;;;;;18.74;95.46;101359.94;682579;28;1342;-45
2022/07/13 01:15:32;;;;;;;5.60;3.60;;;;;;;18.72;95.52;101352.03;681794;28;3789;-43
2022/07/13 01:15:53;;;;;;;4.78;3.40;;;;;;;18.73;95.07;101350.25;681924;28;4455;-44
2022/07/13 01:16:13;;;;;;;4.63;3.30;;;;;;;18.72;94.62;101349.41;682655;28;1109;-43
2022/07/13 01:16:34;;;;;;;4.33;3.40;;;;;;;18.70;94.61;101353.84;681945;28;993;-44
2022/07/13 01:16:55;;;;;;;5.13;3.55;;;;;;;18.72;94.75;101354.69;683187;28;1219;-43
2022/07/13 01:17:16;;;;;;;5.05;3.53;;;;;;;18.72;95.53;101353.84;684305;28;917;-43
2022/07/13 01:17:37;;;;;;;4.80;3.53;;;;;;;18.71;95.47;101358.25;685476;28;1095;-45
2022/07/13 01:17:59;;;;;;;4.90;3.55;;;;;;;18.70;95.25;101350.34;682937;28;1252;-43
2022/07/13 01:18:20;;;;;;;5.53;3.50;;;;;;;18.69;94.73;101351.25;680969;28;2468;-43
2022/07/13 01:18:41;;;;;;;5.85;3.53;;;;;;;18.70;94.96;101358.28;682463;28;1033;-43
2022/07/13 01:19:04;;;;;;;4.53;3.40;;;;;;;18.67;94.99;101350.44;680812;28;4474;-43
2022/07/13 01:19:25;;;;;;;4.93;3.40;;;;;;;18.66;94.97;101348.69;680999;28;1105;-43
2022/07/13 01:19:46;;;;;;;5.13;3.28;;;;;;;18.66;94.79;101349.56;682026;28;1184;-44
2022/07/13 01:20:08;;;;;;;4.50;3.42;;;;;;;18.64;94.82;101348.72;681874;28;2107;-43
2022/07/13 01:20:30;;;;;;;4.70;3.45;;;;;;;18.65;94.62;101344.28;679927;28;1392;-44
2022/07/13 01:20:50;;;;;;;4.75;3.53;;;;;;;18.64;94.73;101347.88;679578;28;1129;-43
2022/07/13 01:21:12;;;;;;;4.45;3.33;;;;;;;18.63;94.93;101354.94;680053;28;1295;-43
2022/07/13 01:21:36;;;;;;;4.50;3.50;;;;;;;18.61;95.30;101354.13;679392;28;1477;-44
2022/07/13 01:22:00;;;;;;;4.80;3.70;;;;;;;18.60;95.65;101352.38;680193;28;4313;-42
2022/07/13 01:22:23;;;;;;;4.70;3.30;;;;;;;18.61;95.52;101350.59;682392;28;1939;-45
2022/07/13 01:22:45;;;;;;;5.05;3.45;;;;;;;18.60;95.34;101347.09;683361;28;1109;-43
2022/07/13 01:23:14;;;;;;;4.63;3.50;;;;;;;18.58;95.58;101348.91;684473;28;1296;-43
2022/07/13 01:23:35;;;;;;;4.82;3.60;;;;;;;18.57;95.70;101349.81;687359;28;1146;-43
2022/07/13 01:23:55;;;;;;;5.40;3.83;;;;;;;18.57;95.60;101344.53;687707;28;1104;-43
2022/07/13 01:24:16;;;;;;;5.40;3.60;;;;;;;18.57;95.37;101352.47;687711;28;1262;-43
2022/07/13 01:24:37;;;;;;;6.05;3.50;;;;;;;18.55;95.84;101352.50;687814;28;1243;-42
2022/07/13 01:24:58;;;;;;;5.90;3.30;;;;;;;18.57;95.87;101343.63;686010;28;4381;-43
2022/07/13 01:25:19;;;;;;;4.85;3.55;;;;;;;18.56;95.46;101353.38;687094;28;1267;-43
2022/07/13 01:25:39;;;;;;;5.30;3.53;;;;;;;18.55;95.80;101348.97;688322;28;1380;-45
2022/07/13 01:26:02;;;;;;;5.60;3.55;;;;;;;18.54;96.22;101344.63;687787;28;1123;-43
2022/07/13 01:26:22;;;;;;;5.10;3.70;;;;;;;18.54;96.30;101344.63;684232;28;2142;-43
2022/07/13 01:26:43;;;;;;;4.57;3.60;;;;;;;18.53;96.42;101342.88;683370;28;1241;-43
2022/07/13 01:27:04;;;;;;;4.88;3.67;;;;;;;18.54;96.29;101344.63;678519;28;1636;-44
2022/07/13 01:27:25;;;;;;;5.45;3.53;;;;;;;18.53;96.27;101348.16;678572;28;1191;-44
2022/07/13 01:27:47;;;;;;;5.22;3.53;;;;;;;18.53;96.23;101342.88;679442;28;1892;-43
2022/07/13 01:28:08;;;;;;;4.68;3.65;;;;;;;18.54;95.90;101344.63;676609;29;4366;-44
2022/07/13 01:28:28;;;;;;;5.10;3.83;;;;;;;18.55;96.29;101343.69;675429;29;1338;-43
2022/07/13 01:28:49;;;;;;;4.82;3.58;;;;;;;18.57;96.51;101349.81;677999;28;1142;-43
2022/07/13 01:29:09;;;;;;;4.57;3.63;;;;;;;18.58;96.02;101351.56;682238;28;1139;-43
2022/07/13 01:29:29;;;;;;;4.60;3.50;;;;;;;18.60;95.19;101349.72;680783;28;1449;-44
2022/07/13 01:29:51;;;;;;;4.78;3.70;;;;;;;18.61;95.33;101345.28;681425;28;1141;-43
2022/07/13 01:30:11;;;;;;;4.63;3.40;;;;;;;18.62;94.91;101350.56;681088;28;1248;-43
2022/07/13 01:30:32;;;;;;;4.60;3.25;;;;;;;18.64;94.91;101345.22;685220;28;1455;-45
2022/07/13 01:30:52;;;;;;;4.50;3.33;;;;;;;18.63;95.31;101354.94;682364;28;4576;-45
2022/07/13 01:31:31;;;;;;;4.90;3.13;;;;;;;18.60;95.10;101349.72;682220;28;1264;-44
2022/07/13 01:31:59;;;;;;;5.20;3.17;;;;;;;18.57;95.09;101349.81;684710;28;1096;-44
2022/07/13 01:32:19;;;;;;;5.28;3.35;;;;;;;18.56;95.36;101350.72;684293;28;1723;-44
2022/07/13 01:32:48;;;;;;;5.00;3.40;;;;;;;18.54;95.39;101348.13;681219;28;1304;-45
2022/07/13 01:33:10;;;;;;;5.00;3.25;;;;;;;18.55;95.63;101356.91;682758;28;1435;-44
2022/07/13 01:33:30;;;;;;;5.27;3.73;;;;;;;18.55;95.67;101351.63;682775;28;1164;-43
2022/07/13 01:33:50;;;;;;;4.95;3.50;;;;;;;18.54;95.34;101352.56;679228;28;4325;-44
2022/07/13 01:34:11;;;;;;;5.17;3.47;;;;;;;18.55;95.10;101351.63;680187;28;1212;-43
2022/07/13 01:34:31;;;;;;;5.47;3.50;;;;;;;18.57;95.32;101355.13;677902;29;1160;-43
2022/07/13 01:34:52;;;;;;;4.80;3.50;;;;;;;18.58;95.58;101351.56;677514;29;1266;-44
2022/07/13 01:35:13;;;;;;;5.23;3.40;;;;;;;18.60;95.71;101354.16;676126;29;2055;-45
2022/07/13 01:35:34;;;;;;;4.63;3.55;;;;;;;18.58;96.48;101354.22;676265;29;1248;-44
2022/07/13 01:35:55;;;;;;;4.60;3.60;;;;;;;18.57;96.46;101351.59;677409;29;1299;-43
2022/07/13 01:36:16;;;;;;;4.88;3.47;;;;;;;18.56;96.71;101353.38;680565;28;1202;-44
2022/07/13 01:36:37;;;;;;;5.27;3.70;;;;;;;18.56;96.40;101350.72;680630;28;1295;-45
2022/07/13 01:36:59;;;;;;;4.85;3.67;;;;;;;18.55;96.49;101354.28;682873;28;4501;-45
2022/07/13 01:37:19;;;;;;;5.40;3.70;;;;;;;18.55;97.23;101351.63;684933;28;1040;-43
2022/07/13 01:37:41;;;;;;;5.10;3.67;;;;;;;18.54;97.12;101355.22;682642;28;1815;-43
2022/07/13 01:38:02;;;;;;;4.90;3.50;;;;;;;18.53;97.23;101356.09;681007;28;1169;-43
2022/07/13 01:38:23;;;;;;;4.82;3.75;;;;;;;18.54;96.96;101352.56;682768;28;1043;-46
2022/07/13 01:38:44;;;;;;;4.78;3.75;;;;;;;18.54;96.08;101352.56;683156;28;1350;-43
2022/07/13 01:39:05;;;;;;;5.28;3.60;;;;;;;18.54;96.64;101355.22;682351;28;957;-44
2022/07/13 01:39:27;;;;;;;5.15;3.60;;;;;;;18.57;96.28;101351.59;682929;28;1073;-44
2022/07/13 01:39:47;;;;;;;4.90;3.70;;;;;;;18.58;96.36;101351.56;682112;28;2084;-44